Time;durP1;ratioP1;P1;durP2;ratioP2;P2;SDS_P1;SDS_P2;PMS_P1;PMS_P2;Temp;Humidity;BMP_temperature;BMP_pressure;BME280_temperature;BME280_humidity;BME280_pressure;Samples;Min_cycle;Max_cycle;Signal;HPM_P1;HPM_P2
2022/11/11 00:02:17;;;;;;;38.00;20.10;;;;;;;;;;4937900;29;20055;-77
2022/11/11 00:05:02;;;;;;;36.45;21.85;;;;;;;;;;4937999;29;20074;-77
2022/11/11 00:07:47;;;;;;;32.75;18.90;;;;;;;;;;4936673;29;20477;-77
2022/11/11 00:10:32;;;;;;;42.30;21.92;;;;;;;;;;4938748;29;20039;-77
2022/11/11 00:13:17;;;;;;;36.47;20.00;;;;;;;;;;4938186;29;20040;-77
2022/11/11 00:16:12;;;;;;;38.55;21.67;;;;;;;;;;4934768;29;20035;-77
2022/11/11 00:25:06;;;;;;;43.25;20.65;;;;;;;;;;4935925;29;20068;-76
2022/11/11 00:27:51;;;;;;;35.63;18.33;;;;;;;;;;4940396;29;20059;-75
2022/11/11 00:30:36;;;;;;;49.95;22.90;;;;;;;;;;4933927;29;20039;-76
2022/11/11 00:33:21;;;;;;;48.75;23.60;;;;;;;;;;4950386;29;20062;-75
2022/11/11 00:36:06;;;;;;;47.08;24.67;;;;;;;;;;4951133;29;20048;-77
2022/11/11 00:38:54;;;;;;;39.80;19.45;;;;;;;;;;4950098;29;20043;-75
2022/11/11 00:41:39;;;;;;;45.33;23.75;;;;;;;;;;4951627;29;20042;-78
2022/11/11 00:44:23;;;;;;;44.50;23.92;;;;;;;;;;4950381;29;20468;-76
2022/11/11 00:53:18;;;;;;;46.00;24.88;;;;;;;;;;4950750;29;20054;-77
2022/11/11 00:56:03;;;;;;;44.40;21.70;;;;;;;;;;4949791;29;20116;-76
2022/11/11 00:58:48;;;;;;;36.17;20.70;;;;;;;;;;4934207;29;20043;-77
2022/11/11 01:01:33;;;;;;;44.45;22.65;;;;;;;;;;4947995;29;20032;-77
2022/11/11 01:04:17;;;;;;;45.13;25.42;;;;;;;;;;4947315;29;20035;-74
2022/11/11 01:07:01;;;;;;;42.45;21.77;;;;;;;;;;4944802;29;20129;-74
2022/11/11 01:09:46;;;;;;;42.25;20.83;;;;;;;;;;4944042;29;20032;-77
2022/11/11 01:12:30;;;;;;;32.60;18.15;;;;;;;;;;4941053;29;20039;-77
2022/11/11 01:15:15;;;;;;;36.40;19.35;;;;;;;;;;4938397;29;20035;-77
2022/11/11 01:17:59;;;;;;;26.15;15.95;;;;;;;;;;4937176;29;20055;-76
2022/11/11 01:20:43;;;;;;;31.88;16.83;;;;;;;;;;4923238;29;20032;-77
2022/11/11 01:23:28;;;;;;;40.10;22.85;;;;;;;;;;4936617;29;20043;-78
2022/11/11 01:26:17;;;;;;;38.30;22.90;;;;;;;;;;4936578;29;20036;-75
2022/11/11 01:29:01;;;;;;;45.05;24.38;;;;;;;;;;4937107;29;20464;-77
2022/11/11 01:31:46;;;;;;;41.13;22.13;;;;;;;;;;4922474;29;20401;-78
2022/11/11 01:34:30;;;;;;;43.10;20.48;;;;;;;;;;4936450;29;20107;-75
2022/11/11 01:37:14;;;;;;;47.00;25.10;;;;;;;;;;4921900;29;20509;-78
2022/11/11 01:39:59;;;;;;;43.70;21.80;;;;;;;;;;4935763;29;20103;-78
2022/11/11 01:42:50;;;;;;;38.28;19.38;;;;;;;;;;4936583;29;20473;-75
2022/11/11 01:45:45;;;;;;;44.33;24.50;;;;;;;;;;4937077;29;20032;-76
2022/11/11 01:51:39;;;;;;;37.53;19.73;;;;;;;;;;4939737;29;20112;-76
2022/11/11 01:54:24;;;;;;;44.15;22.17;;;;;;;;;;4930146;29;20032;-76
2022/11/11 01:57:09;;;;;;;45.17;23.30;;;;;;;;;;4947863;29;20058;-80
2022/11/11 01:59:59;;;;;;;47.53;21.63;;;;;;;;;;4941703;29;20038;-81
2022/11/11 02:02:44;;;;;;;38.97;20.27;;;;;;;;;;4909030;29;20056;-80
2022/11/11 02:05:46;;;;;;;39.90;18.75;;;;;;;;;;4934842;29;20036;-80
2022/11/11 02:08:32;;;;;;;39.60;21.33;;;;;;;;;;4925374;29;20052;-82
2022/11/11 02:14:34;;;;;;;37.35;19.52;;;;;;;;;;4898910;29;20041;-84
2022/11/11 02:14:38;;;;;;;36.30;17.05;;;;;;;;;;4887701;29;20052;-83
2022/11/11 02:17:23;;;;;;;27.13;14.85;;;;;;;;;;4892804;29;20100;-82
2022/11/11 02:20:08;;;;;;;32.72;14.82;;;;;;;;;;4889118;29;20141;-81
2022/11/11 02:22:56;;;;;;;32.25;18.38;;;;;;;;;;4896313;29;20097;-80
2022/11/11 02:25:41;;;;;;;24.42;15.15;;;;;;;;;;4866645;29;20083;-79
2022/11/11 02:28:25;;;;;;;42.10;20.63;;;;;;;;;;4879506;29;20068;-80
2022/11/11 02:31:12;;;;;;;36.30;18.83;;;;;;;;;;4880287;29;20040;-80
2022/11/11 02:33:56;;;;;;;39.05;19.02;;;;;;;;;;4878736;29;20037;-79
2022/11/11 02:36:40;;;;;;;33.47;19.17;;;;;;;;;;4877249;29;20045;-80
2022/11/11 02:39:25;;;;;;;31.67;15.57;;;;;;;;;;4879870;29;20040;-80
2022/11/11 02:42:09;;;;;;;29.65;16.45;;;;;;;;;;4864390;29;20029;-80
2022/11/11 02:44:57;;;;;;;29.48;15.38;;;;;;;;;;4883723;29;20046;-80
2022/11/11 02:47:42;;;;;;;33.50;17.58;;;;;;;;;;4895378;29;20025;-78
2022/11/11 02:50:26;;;;;;;27.85;15.57;;;;;;;;;;4888784;29;20041;-81
2022/11/11 02:53:11;;;;;;;28.50;15.98;;;;;;;;;;4897280;29;20041;-82
2022/11/11 02:55:55;;;;;;;30.13;16.92;;;;;;;;;;4899978;29;20044;-81
2022/11/11 02:58:39;;;;;;;25.15;15.68;;;;;;;;;;4897042;29;20152;-81
2022/11/11 03:01:24;;;;;;;27.27;14.65;;;;;;;;;;4908512;29;20178;-80
2022/11/11 03:04:09;;;;;;;18.98;9.63;;;;;;;;;;4894701;29;20060;-80
2022/11/11 03:06:53;;;;;;;32.20;16.73;;;;;;;;;;4895991;29;20095;-78
2022/11/11 03:09:38;;;;;;;30.38;15.77;;;;;;;;;;4897557;29;20038;-79
2022/11/11 03:12:23;;;;;;;31.02;16.35;;;;;;;;;;4896306;29;20028;-80
2022/11/11 03:15:07;;;;;;;22.27;13.88;;;;;;;;;;4894748;29;20056;-81
2022/11/11 03:17:51;;;;;;;30.00;18.30;;;;;;;;;;4895931;29;20054;-79
2022/11/11 03:23:39;;;;;;;24.13;14.25;;;;;;;;;;4895246;29;20044;-80
2022/11/11 03:26:24;;;;;;;28.42;17.98;;;;;;;;;;4893907;29;20141;-79
2022/11/11 03:29:08;;;;;;;13.40;8.57;;;;;;;;;;4902220;29;20072;-80
2022/11/11 03:31:53;;;;;;;23.23;14.02;;;;;;;;;;4906060;29;20051;-83
2022/11/11 03:34:37;;;;;;;15.60;10.90;;;;;;;;;;4900277;29;20524;-79
2022/11/11 03:40:25;;;;;;;30.27;16.73;;;;;;;;;;4895378;29;20552;-79
2022/11/11 03:43:10;;;;;;;27.50;14.93;;;;;;;;;;4893903;29;20501;-79
2022/11/11 03:45:55;;;;;;;35.20;16.52;;;;;;;;;;4895027;29;20095;-80
2022/11/11 03:48:39;;;;;;;40.95;19.35;;;;;;;;;;4894708;29;20040;-80
2022/11/11 03:51:23;;;;;;;36.65;15.68;;;;;;;;;;4895270;29;20115;-79
2022/11/11 03:54:08;;;;;;;30.98;15.70;;;;;;;;;;4894524;29;20037;-79
2022/11/11 03:57:29;;;;;;;36.60;16.10;;;;;;;;;;4898118;29;20048;-79
2022/11/11 03:59:57;;;;;;;36.15;17.52;;;;;;;;;;4897198;29;20092;-80
2022/11/11 04:11:52;;;;;;;40.55;16.42;;;;;;;;;;4895808;29;20239;-78
2022/11/11 04:17:40;;;;;;;40.97;18.73;;;;;;;;;;4894441;29;20545;-77
2022/11/11 04:23:28;;;;;;;30.33;13.63;;;;;;;;;;4894220;29;20099;-79
2022/11/11 04:26:13;;;;;;;30.02;14.48;;;;;;;;;;4891034;29;20123;-78
2022/11/11 04:35:25;;;;;;;22.50;12.50;;;;;;;;;;4871626;29;20041;-80
2022/11/11 04:41:13;;;;;;;28.90;14.55;;;;;;;;;;4896846;29;20486;-81
2022/11/11 04:47:01;;;;;;;16.02;10.90;;;;;;;;;;4893756;29;20043;-79
2022/11/11 04:49:46;;;;;;;26.38;14.20;;;;;;;;;;4895692;29;20386;-82
2022/11/11 04:52:30;;;;;;;26.83;13.40;;;;;;;;;;4895675;29;20119;-82
2022/11/11 04:58:18;;;;;;;24.95;13.60;;;;;;;;;;4894944;29;20071;-81
2022/11/11 05:04:26;;;;;;;25.23;12.15;;;;;;;;;;4894602;29;20044;-80
2022/11/11 05:10:14;;;;;;;27.48;14.55;;;;;;;;;;4897410;29;20095;-81
2022/11/11 05:22:15;;;;;;;34.55;15.68;;;;;;;;;;4897569;29;20469;-80
2022/11/11 05:28:03;;;;;;;34.38;14.82;;;;;;;;;;4899530;29;20572;-83
2022/11/11 05:30:47;;;;;;;29.98;16.85;;;;;;;;;;4900200;29;20056;-81
2022/11/11 05:33:31;;;;;;;34.08;17.48;;;;;;;;;;4897489;29;20607;-80
2022/11/11 05:36:21;;;;;;;34.45;16.70;;;;;;;;;;4897759;29;20124;-81
2022/11/11 05:39:06;;;;;;;25.52;14.73;;;;;;;;;;4897126;29;20521;-80
2022/11/11 05:41:50;;;;;;;38.55;19.55;;;;;;;;;;4909388;29;20470;-80
2022/11/11 05:44:35;;;;;;;29.58;14.32;;;;;;;;;;4896928;29;20037;-80
2022/11/11 05:47:19;;;;;;;24.15;13.25;;;;;;;;;;4890684;29;20040;-80
2022/11/11 05:50:04;;;;;;;9.18;7.45;;;;;;;;;;4890584;29;20036;-79
2022/11/11 05:52:49;;;;;;;14.30;9.85;;;;;;;;;;4897040;29;20044;-81
2022/11/11 05:55:34;;;;;;;26.77;15.38;;;;;;;;;;4895613;29;20537;-79
2022/11/11 05:58:18;;;;;;;28.38;15.63;;;;;;;;;;4897074;29;20131;-80
2022/11/11 06:01:03;;;;;;;29.10;15.13;;;;;;;;;;4896830;29;20048;-79
2022/11/11 06:03:48;;;;;;;25.92;14.65;;;;;;;;;;4936233;29;20064;-80
2022/11/11 06:06:33;;;;;;;36.42;19.10;;;;;;;;;;4943488;29;20087;-80
2022/11/11 06:09:17;;;;;;;35.42;17.73;;;;;;;;;;4924921;29;20078;-78
2022/11/11 06:12:02;;;;;;;27.95;17.13;;;;;;;;;;4952125;29;20033;-78
2022/11/11 06:14:46;;;;;;;15.63;11.50;;;;;;;;;;4953370;29;20032;-79
2022/11/11 06:17:32;;;;;;;28.70;15.07;;;;;;;;;;4932394;29;20094;-79
2022/11/11 06:20:17;;;;;;;24.38;15.45;;;;;;;;;;4931616;29;20512;-80
2022/11/11 06:23:01;;;;;;;23.27;14.77;;;;;;;;;;4933575;29;20039;-80
2022/11/11 06:28:50;;;;;;;27.13;14.25;;;;;;;;;;4932399;29;20103;-79
2022/11/11 06:31:34;;;;;;;24.50;14.45;;;;;;;;;;4930986;29;20567;-80
2022/11/11 06:34:19;;;;;;;24.50;14.50;;;;;;;;;;4915618;29;20039;-79
2022/11/11 06:37:04;;;;;;;27.33;17.08;;;;;;;;;;4929518;29;20413;-80
2022/11/11 06:39:48;;;;;;;24.02;14.75;;;;;;;;;;4929478;29;20027;-78
2022/11/11 06:42:36;;;;;;;24.13;15.27;;;;;;;;;;4926498;29;20032;-77
2022/11/11 06:45:21;;;;;;;19.63;14.55;;;;;;;;;;4932030;29;20046;-76
2022/11/11 06:48:05;;;;;;;21.77;13.73;;;;;;;;;;4932976;29;20126;-77
2022/11/11 06:50:50;;;;;;;19.17;12.95;;;;;;;;;;4929676;29;20039;-77
2022/11/11 06:53:35;;;;;;;15.82;13.13;;;;;;;;;;4930947;29;20414;-78
2022/11/11 06:56:20;;;;;;;13.18;10.75;;;;;;;;;;4914521;29;20118;-78
2022/11/11 06:59:04;;;;;;;12.32;10.40;;;;;;;;;;4931967;29;20035;-77
2022/11/11 07:01:49;;;;;;;8.90;7.78;;;;;;;;;;4930028;29;20035;-79
2022/11/11 07:04:34;;;;;;;10.05;7.78;;;;;;;;;;4929350;29;20032;-79
2022/11/11 07:07:18;;;;;;;10.77;9.63;;;;;;;;;;4906459;29;20099;-78
2022/11/11 07:10:06;;;;;;;9.30;8.35;;;;;;;;;;4928206;29;20038;-78
2022/11/11 07:12:50;;;;;;;11.45;8.18;;;;;;;;;;4930747;29;20078;-79
2022/11/11 07:15:35;;;;;;;10.60;9.57;;;;;;;;;;4929089;29;20305;-78
2022/11/11 07:18:20;;;;;;;8.75;5.65;;;;;;;;;;4932322;29;20215;-78
2022/11/11 07:21:04;;;;;;;11.00;7.28;;;;;;;;;;4931493;29;20027;-79
2022/11/11 07:23:49;;;;;;;9.40;8.38;;;;;;;;;;4915763;29;20091;-79
2022/11/11 07:26:33;;;;;;;8.05;7.25;;;;;;;;;;4929530;29;20055;-81
2022/11/11 07:29:18;;;;;;;10.60;9.48;;;;;;;;;;4931851;29;20066;-80
2022/11/11 07:32:02;;;;;;;9.55;7.18;;;;;;;;;;4913481;29;20031;-79
2022/11/11 07:34:48;;;;;;;11.70;9.52;;;;;;;;;;4930031;29;20055;-79
2022/11/11 07:37:32;;;;;;;12.43;10.30;;;;;;;;;;4930690;29;20495;-77
2022/11/11 07:40:18;;;;;;;9.48;8.23;;;;;;;;;;4928891;29;20035;-78
2022/11/11 07:43:02;;;;;;;12.18;10.88;;;;;;;;;;4930208;29;20039;-78
2022/11/11 07:45:46;;;;;;;10.65;9.48;;;;;;;;;;4912594;29;20079;-78
2022/11/11 07:48:31;;;;;;;11.02;8.75;;;;;;;;;;4929000;29;20022;-84
2022/11/11 07:51:15;;;;;;;17.58;9.57;;;;;;;;;;4945202;29;20027;-85
2022/11/11 07:53:59;;;;;;;13.73;10.90;;;;;;;;;;4958709;29;20067;-84
2022/11/11 07:56:44;;;;;;;12.85;8.55;;;;;;;;;;4940562;29;20059;-79
2022/11/11 07:59:29;;;;;;;11.82;7.40;;;;;;;;;;4905440;29;20043;-77
2022/11/11 08:02:13;;;;;;;10.85;9.73;;;;;;;;;;4929991;29;20086;-77
2022/11/11 08:04:58;;;;;;;10.80;8.98;;;;;;;;;;4908719;29;20031;-76
2022/11/11 08:07:42;;;;;;;10.07;8.30;;;;;;;;;;4932064;29;20034;-77
2022/11/11 08:10:27;;;;;;;9.60;8.38;;;;;;;;;;4916548;29;20071;-80
2022/11/11 08:16:28;;;;;;;16.23;8.68;;;;;;;;;;4907845;29;20055;-77
2022/11/11 08:19:13;;;;;;;8.45;6.63;;;;;;;;;;4913097;29;20044;-77
2022/11/11 08:21:57;;;;;;;12.10;8.98;;;;;;;;;;4929228;29;20100;-78
2022/11/11 08:24:42;;;;;;;10.73;9.15;;;;;;;;;;4928170;29;20031;-77
2022/11/11 08:27:26;;;;;;;5.78;5.28;;;;;;;;;;4927155;29;20031;-77
2022/11/11 08:30:11;;;;;;;12.52;10.23;;;;;;;;;;4914771;29;20046;-76
2022/11/11 08:32:58;;;;;;;13.63;10.18;;;;;;;;;;4929853;29;20082;-77
2022/11/11 08:35:42;;;;;;;13.15;10.35;;;;;;;;;;4925609;29;20028;-77
2022/11/11 08:38:27;;;;;;;10.60;8.02;;;;;;;;;;4928647;29;20158;-76
2022/11/11 08:41:12;;;;;;;12.65;9.70;;;;;;;;;;4928441;29;20039;-77
2022/11/11 08:43:58;;;;;;;10.93;9.82;;;;;;;;;;4926460;29;20075;-77
2022/11/11 08:46:43;;;;;;;11.50;8.13;;;;;;;;;;4926476;29;20564;-76
2022/11/11 08:49:28;;;;;;;11.43;9.23;;;;;;;;;;4928576;29;20047;-77
2022/11/11 08:52:12;;;;;;;8.93;7.05;;;;;;;;;;4931965;29;20071;-73
2022/11/11 08:54:59;;;;;;;12.55;9.50;;;;;;;;;;4934143;29;20043;-75
2022/11/11 08:57:43;;;;;;;11.05;8.18;;;;;;;;;;4929932;29;20063;-75
2022/11/11 09:00:28;;;;;;;10.15;7.00;;;;;;;;;;4930464;29;20142;-76
2022/11/11 09:03:13;;;;;;;10.75;9.65;;;;;;;;;;4918873;29;20353;-74
2022/11/11 09:05:58;;;;;;;15.38;9.45;;;;;;;;;;4932416;29;20027;-75
2022/11/11 09:08:42;;;;;;;15.18;8.65;;;;;;;;;;4919818;29;20031;-76
2022/11/11 09:11:34;;;;;;;9.50;8.15;;;;;;;;;;4933215;29;20040;-76
2022/11/11 09:14:19;;;;;;;13.30;10.07;;;;;;;;;;4918626;29;20040;-76
2022/11/11 09:17:04;;;;;;;13.20;8.80;;;;;;;;;;4933331;29;20070;-76
2022/11/11 09:19:49;;;;;;;7.82;6.65;;;;;;;;;;4933387;29;20146;-76
2022/11/11 09:22:40;;;;;;;11.88;8.95;;;;;;;;;;4921604;29;20135;-76
2022/11/11 09:25:25;;;;;;;8.57;7.60;;;;;;;;;;4916836;29;20508;-76
2022/11/11 09:28:09;;;;;;;9.73;8.70;;;;;;;;;;4932087;29;20129;-77
2022/11/11 09:30:53;;;;;;;11.48;8.57;;;;;;;;;;4918299;29;20098;-75
2022/11/11 09:33:38;;;;;;;7.95;7.25;;;;;;;;;;4932623;29;20508;-75
2022/11/11 09:36:23;;;;;;;10.48;8.10;;;;;;;;;;4932207;29;20047;-76
2022/11/11 09:39:07;;;;;;;8.75;7.82;;;;;;;;;;4930327;29;20527;-76
2022/11/11 09:41:52;;;;;;;10.73;8.13;;;;;;;;;;4931063;29;20054;-75
2022/11/11 09:44:42;;;;;;;7.95;7.03;;;;;;;;;;4931137;29;20036;-75
2022/11/11 09:47:39;;;;;;;9.07;8.23;;;;;;;;;;4929784;29;20555;-75
2022/11/11 09:50:27;;;;;;;9.07;7.22;;;;;;;;;;4902175;29;20043;-75
2022/11/11 09:53:21;;;;;;;8.50;6.75;;;;;;;;;;4916929;29;20047;-75
2022/11/11 09:56:13;;;;;;;9.10;7.22;;;;;;;;;;4930275;29;20039;-75
2022/11/11 09:59:06;;;;;;;9.35;7.75;;;;;;;;;;4931849;29;20048;-77
2022/11/11 10:01:52;;;;;;;7.57;6.88;;;;;;;;;;4931883;29;20524;-75
2022/11/11 10:04:39;;;;;;;7.68;6.88;;;;;;;;;;4932219;29;20042;-75
2022/11/11 10:07:24;;;;;;;6.43;5.82;;;;;;;;;;4927552;29;20033;-74
2022/11/11 10:10:15;;;;;;;6.07;5.60;;;;;;;;;;4929854;29;20039;-75
2022/11/11 10:12:59;;;;;;;8.18;6.57;;;;;;;;;;4901306;29;20078;-75
2022/11/11 10:16:04;;;;;;;9.40;6.20;;;;;;;;;;4931383;29;20046;-74
2022/11/11 10:19:07;;;;;;;8.65;7.25;;;;;;;;;;4912109;29;20066;-73
2022/11/11 10:21:52;;;;;;;8.63;7.70;;;;;;;;;;4929310;29;20481;-73
2022/11/11 10:24:37;;;;;;;7.20;6.60;;;;;;;;;;4928122;29;20513;-73
2022/11/11 10:27:22;;;;;;;6.55;5.97;;;;;;;;;;4916470;29;20551;-73
2022/11/11 10:30:13;;;;;;;7.03;5.85;;;;;;;;;;4943190;29;20035;-74
2022/11/11 10:32:57;;;;;;;7.50;6.80;;;;;;;;;;4914210;29;20094;-74
2022/11/11 10:35:42;;;;;;;7.82;7.05;;;;;;;;;;4921065;29;20436;-73
2022/11/11 10:38:45;;;;;;;7.32;6.68;;;;;;;;;;4930849;29;20051;-74
2022/11/11 10:41:30;;;;;;;5.40;4.90;;;;;;;;;;4929867;29;20039;-74
2022/11/11 10:44:19;;;;;;;8.05;6.18;;;;;;;;;;4929867;29;20094;-74
2022/11/11 10:47:05;;;;;;;6.90;6.30;;;;;;;;;;4931703;29;20131;-74
2022/11/11 10:49:54;;;;;;;6.55;5.82;;;;;;;;;;4930147;29;20481;-74
2022/11/11 10:52:39;;;;;;;4.63;4.32;;;;;;;;;;4929462;29;20508;-75
2022/11/11 10:55:28;;;;;;;9.43;6.88;;;;;;;;;;4927464;29;20063;-74
2022/11/11 10:58:45;;;;;;;5.30;4.85;;;;;;;;;;4931133;29;20051;-74
2022/11/11 11:01:31;;;;;;;6.93;6.32;;;;;;;;;;4921585;29;20044;-75
2022/11/11 11:04:34;;;;;;;4.85;4.40;;;;;;;;;;4928661;29;20111;-74
2022/11/11 11:07:20;;;;;;;5.78;5.28;;;;;;;;;;4927089;29;20512;-74
2022/11/11 11:10:05;;;;;;;7.10;6.43;;;;;;;;;;4930359;29;20059;-75
2022/11/11 11:12:51;;;;;;;7.30;6.70;;;;;;;;;;4928745;29;20034;-74
2022/11/11 11:15:38;;;;;;;5.43;4.90;;;;;;;;;;4931801;29;20040;-74
2022/11/11 11:18:22;;;;;;;9.18;6.28;;;;;;;;;;4920319;29;20043;-74
2022/11/11 11:21:07;;;;;;;7.20;6.50;;;;;;;;;;4945283;29;20587;-75
2022/11/11 11:23:52;;;;;;;5.50;5.10;;;;;;;;;;4947539;29;20046;-75
2022/11/11 11:26:43;;;;;;;4.63;4.22;;;;;;;;;;4945330;29;20031;-76
2022/11/11 11:29:32;;;;;;;7.18;5.97;;;;;;;;;;4934241;29;20046;-76
2022/11/11 11:32:20;;;;;;;4.80;4.38;;;;;;;;;;4915166;29;20090;-75
2022/11/11 11:35:05;;;;;;;6.93;6.32;;;;;;;;;;4928146;29;20103;-76
2022/11/11 11:37:49;;;;;;;5.10;4.78;;;;;;;;;;4931247;29;20512;-76
2022/11/11 11:41:06;;;;;;;9.05;5.95;;;;;;;;;;4916676;29;20038;-75
2022/11/11 11:43:50;;;;;;;7.13;6.50;;;;;;;;;;4916051;29;20187;-80
2022/11/11 11:46:39;;;;;;;8.27;7.45;;;;;;;;;;4919918;29;20040;-81
2022/11/11 11:49:31;;;;;;;7.90;6.88;;;;;;;;;;4936371;29;20095;-79
2022/11/11 11:52:22;;;;;;;7.45;6.75;;;;;;;;;;4922841;29;20040;-81
2022/11/11 11:55:10;;;;;;;8.80;6.63;;;;;;;;;;4937612;29;20036;-82
2022/11/11 11:57:59;;;;;;;7.40;6.55;;;;;;;;;;4893987;29;20520;-81
2022/11/11 12:00:53;;;;;;;7.93;7.10;;;;;;;;;;4923967;29;20131;-79
2022/11/11 12:03:47;;;;;;;10.10;7.10;;;;;;;;;;4924815;29;20064;-81
2022/11/11 12:06:35;;;;;;;7.70;6.90;;;;;;;;;;4925996;29;20043;-81
2022/11/11 12:09:22;;;;;;;7.18;6.50;;;;;;;;;;4942230;29;20036;-81
2022/11/11 12:12:06;;;;;;;7.25;6.35;;;;;;;;;;4941815;29;20050;-81
2022/11/11 12:14:59;;;;;;;4.32;4.00;;;;;;;;;;4940675;29;20038;-81
2022/11/11 12:17:43;;;;;;;7.32;6.60;;;;;;;;;;4939831;29;20074;-80
2022/11/11 12:20:29;;;;;;;9.65;6.28;;;;;;;;;;4940412;29;20428;-81
2022/11/11 12:23:32;;;;;;;5.85;5.30;;;;;;;;;;4940910;29;20036;-81
2022/11/11 12:26:20;;;;;;;5.22;4.72;;;;;;;;;;4945513;29;20039;-81
2022/11/11 12:29:23;;;;;;;6.80;6.07;;;;;;;;;;4960805;29;20127;-79
2022/11/11 12:32:25;;;;;;;7.15;6.40;;;;;;;;;;4961610;29;20024;-81
2022/11/11 12:35:10;;;;;;;6.60;6.00;;;;;;;;;;4945737;29;20063;-80
2022/11/11 12:37:54;;;;;;;7.50;6.80;;;;;;;;;;4956470;29;20031;-81
2022/11/11 12:40:42;;;;;;;8.25;6.25;;;;;;;;;;4960145;29;20095;-81
2022/11/11 12:43:39;;;;;;;6.53;5.97;;;;;;;;;;4960970;29;20035;-81
2022/11/11 12:46:30;;;;;;;8.35;7.10;;;;;;;;;;4959751;28;20050;-83
2022/11/11 12:49:29;;;;;;;7.53;6.83;;;;;;;;;;4952986;29;20040;-81
2022/11/11 12:52:21;;;;;;;9.43;6.07;;;;;;;;;;4939088;29;20044;-81
2022/11/11 12:55:11;;;;;;;3.53;3.25;;;;;;;;;;4937934;29;20504;-81
2022/11/11 12:57:58;;;;;;;8.32;6.70;;;;;;;;;;4939396;29;20448;-82
2022/11/11 13:00:54;;;;;;;6.25;5.65;;;;;;;;;;4935915;29;20036;-79
2022/11/11 13:03:39;;;;;;;9.73;7.05;;;;;;;;;;4935885;29;20055;-79
2022/11/11 13:06:34;;;;;;;5.97;5.53;;;;;;;;;;4935579;29;20043;-80
2022/11/11 13:09:38;;;;;;;7.85;5.88;;;;;;;;;;4948406;29;20040;-79
2022/11/11 13:12:35;;;;;;;6.63;5.82;;;;;;;;;;4917443;29;20146;-80
2022/11/11 13:15:23;;;;;;;8.18;6.90;;;;;;;;;;4935916;29;20095;-80
2022/11/11 13:18:11;;;;;;;8.45;7.43;;;;;;;;;;4934850;29;20068;-79
2022/11/11 13:20:56;;;;;;;9.10;8.23;;;;;;;;;;4935494;29;20063;-80
2022/11/11 13:23:41;;;;;;;11.30;5.57;;;;;;;;;;4934784;29;20040;-80
2022/11/11 13:26:25;;;;;;;10.63;7.55;;;;;;;;;;4935658;29;20039;-79
2022/11/11 13:29:30;;;;;;;8.75;7.47;;;;;;;;;;4936168;29;20429;-80
2022/11/11 13:32:15;;;;;;;9.02;7.20;;;;;;;;;;4920152;29;20051;-80
2022/11/11 13:35:00;;;;;;;6.60;5.95;;;;;;;;;;4933839;29;20035;-80
2022/11/11 13:37:46;;;;;;;5.95;5.45;;;;;;;;;;4934425;29;20047;-80
2022/11/11 13:40:41;;;;;;;8.15;7.38;;;;;;;;;;4935125;29;20048;-80
2022/11/11 13:43:26;;;;;;;6.53;5.63;;;;;;;;;;4931423;29;20043;-79
2022/11/11 13:46:36;;;;;;;9.05;8.05;;;;;;;;;;4934359;29;20563;-80
2022/11/11 13:49:35;;;;;;;10.18;7.43;;;;;;;;;;4921059;29;20036;-80
2022/11/11 13:52:23;;;;;;;6.20;5.70;;;;;;;;;;4933837;29;20481;-80
2022/11/11 13:55:08;;;;;;;6.70;6.10;;;;;;;;;;4933052;29;20504;-79
2022/11/11 13:57:53;;;;;;;7.15;6.00;;;;;;;;;;4935688;29;20575;-81
2022/11/11 14:00:38;;;;;;;6.32;5.72;;;;;;;;;;4933546;29;20063;-79
2022/11/11 14:03:24;;;;;;;12.07;6.93;;;;;;;;;;4936056;29;20402;-80
2022/11/11 14:06:13;;;;;;;8.90;7.07;;;;;;;;;;4934529;29;20043;-80
2022/11/11 14:08:58;;;;;;;8.37;7.07;;;;;;;;;;4934401;29;20032;-80
2022/11/11 14:11:42;;;;;;;11.40;7.03;;;;;;;;;;4933258;29;20291;-79
2022/11/11 14:14:33;;;;;;;7.65;6.95;;;;;;;;;;4936214;29;20600;-79
2022/11/11 14:17:18;;;;;;;6.28;5.72;;;;;;;;;;4935152;29;20044;-81
2022/11/11 14:20:22;;;;;;;7.45;5.95;;;;;;;;;;4918898;29;20055;-81
2022/11/11 14:23:19;;;;;;;7.50;6.75;;;;;;;;;;4943446;29;20080;-82
2022/11/11 14:26:11;;;;;;;5.78;5.28;;;;;;;;;;4938664;29;20071;-81
2022/11/11 14:28:55;;;;;;;;;;;;;;;;;;4939026;29;20032;-82
2022/11/11 14:31:47;;;;;;;5.38;4.95;;;;;;;;;;4940215;29;19914;-83
2022/11/11 14:34:31;;;;;;;5.95;5.05;;;;;;;;;;4941061;29;20040;-81
2022/11/11 14:37:26;;;;;;;6.60;6.03;;;;;;;;;;4935813;29;20043;-81
2022/11/11 14:40:11;;;;;;;7.10;6.30;;;;;;;;;;4934473;29;20461;-81
2022/11/11 14:42:55;;;;;;;6.15;5.65;;;;;;;;;;4936224;29;20094;-80
2022/11/11 14:45:43;;;;;;;6.45;5.53;;;;;;;;;;4933652;29;20036;-81
2022/11/11 14:48:46;;;;;;;5.88;5.35;;;;;;;;;;4925677;29;20035;-80
2022/11/11 14:51:35;;;;;;;5.22;4.82;;;;;;;;;;4949174;29;20063;-80
2022/11/11 14:54:21;;;;;;;3.95;3.65;;;;;;;;;;4934120;29;20119;-80
2022/11/11 14:57:06;;;;;;;4.70;4.32;;;;;;;;;;4923302;29;20051;-80
2022/11/11 14:59:51;;;;;;;3.40;3.15;;;;;;;;;;4922968;29;20047;-80
2022/11/11 15:02:37;;;;;;;9.05;5.20;;;;;;;;;;4920623;29;20142;-81
2022/11/11 15:05:25;;;;;;;5.57;5.07;;;;;;;;;;4922116;29;20044;-81
2022/11/11 15:08:23;;;;;;;3.67;3.38;;;;;;;;;;4920458;29;20496;-81
2022/11/11 15:11:07;;;;;;;4.53;4.13;;;;;;;;;;4935704;29;20059;-84
2022/11/11 15:13:55;;;;;;;4.32;4.00;;;;;;;;;;4933911;29;20043;-80
2022/11/11 15:16:49;;;;;;;5.18;4.15;;;;;;;;;;4933836;29;20057;-81
2022/11/11 15:19:42;;;;;;;4.03;3.40;;;;;;;;;;4934508;29;20090;-81
2022/11/11 15:22:28;;;;;;;5.43;5.03;;;;;;;;;;4934341;29;20047;-81
2022/11/11 15:25:13;;;;;;;6.53;3.70;;;;;;;;;;4930243;29;20036;-81
2022/11/11 15:27:57;;;;;;;4.90;3.88;;;;;;;;;;4930977;29;20039;-81
2022/11/11 15:30:50;;;;;;;4.68;4.25;;;;;;;;;;4924464;29;20062;-75
2022/11/11 15:33:46;;;;;;;3.78;3.47;;;;;;;;;;4916442;29;20409;-76
2022/11/11 15:36:40;;;;;;;4.25;3.95;;;;;;;;;;4928299;29;20040;-75
2022/11/11 15:39:25;;;;;;;3.35;3.05;;;;;;;;;;4929089;29;20048;-75
2022/11/11 15:42:18;;;;;;;4.55;3.70;;;;;;;;;;4929395;29;20575;-76
2022/11/11 15:45:04;;;;;;;4.15;3.85;;;;;;;;;;4927179;29;20035;-76
2022/11/11 15:47:48;;;;;;;4.38;4.07;;;;;;;;;;4911561;29;20104;-75
2022/11/11 15:50:36;;;;;;;4.07;3.78;;;;;;;;;;4929032;29;20122;-74
2022/11/11 15:53:21;;;;;;;3.90;3.70;;;;;;;;;;4912603;29;20035;-74
2022/11/11 15:56:07;;;;;;;3.80;3.50;;;;;;;;;;4929583;29;20032;-74
2022/11/11 15:58:52;;;;;;;3.80;3.50;;;;;;;;;;4929800;29;20054;-75
2022/11/11 16:01:36;;;;;;;3.83;3.53;;;;;;;;;;4928831;29;20215;-75
2022/11/11 16:04:21;;;;;;;6.25;3.40;;;;;;;;;;4928874;29;20047;-77
2022/11/11 16:07:14;;;;;;;4.57;2.92;;;;;;;;;;4929499;29;20036;-75
2022/11/11 16:09:59;;;;;;;3.45;2.80;;;;;;;;;;4927722;29;20112;-75
2022/11/11 16:12:44;;;;;;;3.40;3.20;;;;;;;;;;4927479;29;20050;-75
2022/11/11 16:15:36;;;;;;;3.40;3.20;;;;;;;;;;4926819;29;20544;-76
2022/11/11 16:18:24;;;;;;;4.50;4.10;;;;;;;;;;4924944;29;20059;-75
2022/11/11 16:21:11;;;;;;;3.28;2.97;;;;;;;;;;4914926;29;20028;-74
2022/11/11 16:23:56;;;;;;;5.78;3.53;;;;;;;;;;4915374;29;20042;-76
2022/11/11 16:26:40;;;;;;;3.53;3.22;;;;;;;;;;4929557;29;20040;-76
2022/11/11 16:29:27;;;;;;;3.42;3.17;;;;;;;;;;4915028;29;20039;-75
2022/11/11 16:32:18;;;;;;;3.75;2.53;;;;;;;;;;4926726;29;20138;-75
2022/11/11 16:35:20;;;;;;;3.60;3.17;;;;;;;;;;4927420;29;20035;-76
2022/11/11 16:38:04;;;;;;;2.28;2.17;;;;;;;;;;4914894;29;20460;-76
2022/11/11 16:40:48;;;;;;;2.33;2.22;;;;;;;;;;4927597;29;20035;-77
2022/11/11 16:43:33;;;;;;;2.45;2.35;;;;;;;;;;4930473;29;20044;-78
2022/11/11 16:46:33;;;;;;;2.85;2.63;;;;;;;;;;4929639;29;20047;-78
2022/11/11 16:49:24;;;;;;;2.72;2.53;;;;;;;;;;4925850;29;20142;-78
2022/11/11 16:52:10;;;;;;;5.03;3.35;;;;;;;;;;4915059;29;20043;-78
2022/11/11 16:54:56;;;;;;;3.67;3.38;;;;;;;;;;4903176;29;20039;-78
2022/11/11 16:57:42;;;;;;;5.43;3.97;;;;;;;;;;4914876;29;20424;-80
2022/11/11 17:00:26;;;;;;;4.75;3.90;;;;;;;;;;4929341;29;20039;-76
2022/11/11 17:03:10;;;;;;;5.15;4.30;;;;;;;;;;4927672;29;20183;-75
2022/11/11 17:06:06;;;;;;;5.20;4.80;;;;;;;;;;4929067;29;20040;-76
2022/11/11 17:08:51;;;;;;;5.57;3.90;;;;;;;;;;4917459;29;20530;-76
2022/11/11 17:11:39;;;;;;;4.30;4.00;;;;;;;;;;4931623;29;20388;-77
2022/11/11 17:14:24;;;;;;;4.13;3.75;;;;;;;;;;4931056;29;20039;-76
2022/11/11 17:17:08;;;;;;;4.50;4.10;;;;;;;;;;4931552;29;20040;-75
2022/11/11 17:19:53;;;;;;;8.23;4.78;;;;;;;;;;4932395;29;20069;-76
2022/11/11 17:22:44;;;;;;;5.70;4.55;;;;;;;;;;4932442;29;20520;-76
2022/11/11 17:25:28;;;;;;;6.45;4.47;;;;;;;;;;4932042;29;20721;-77
2022/11/11 17:28:13;;;;;;;4.50;4.20;;;;;;;;;;4916168;29;20444;-76
2022/11/11 17:30:57;;;;;;;6.10;4.35;;;;;;;;;;4929555;29;20035;-74
2022/11/11 17:33:42;;;;;;;4.38;4.03;;;;;;;;;;4931348;29;20523;-75
2022/11/11 17:36:26;;;;;;;5.45;4.65;;;;;;;;;;4930760;29;20055;-75
2022/11/11 17:39:10;;;;;;;4.28;3.97;;;;;;;;;;4931606;29;20047;-79
2022/11/11 17:41:55;;;;;;;5.25;4.75;;;;;;;;;;4931467;29;20611;-75
2022/11/11 17:44:40;;;;;;;4.93;4.47;;;;;;;;;;4932294;29;20036;-75
2022/11/11 17:47:24;;;;;;;4.45;4.15;;;;;;;;;;4917847;29;20039;-75
2022/11/11 17:50:08;;;;;;;6.78;5.63;;;;;;;;;;4932835;29;20028;-75